createdAt,value
2019-05-22T00:00:57.876Z,11.14
2019-05-22T00:03:31.183Z,11.15
2019-05-22T00:05:59.169Z,11.15
2019-05-22T00:08:26.852Z,11.14
2019-05-22T00:10:56.621Z,11.14
2019-05-22T00:13:29.899Z,11.15
2019-05-22T00:15:57.177Z,11.15
2019-05-22T00:18:24.424Z,11.16
2019-05-22T00:20:53.175Z,11.17
2019-05-22T00:23:21.854Z,11.16
2019-05-22T00:25:50.117Z,11.15
2019-05-22T00:28:17.328Z,11.15
2019-05-22T00:30:47.395Z,11.15
2019-05-22T00:33:15.294Z,11.13
2019-05-22T00:35:44.195Z,11.12
2019-05-22T00:38:11.432Z,11.12
2019-05-22T00:40:50.363Z,11.13
2019-05-22T00:43:18.102Z,11.13
2019-05-22T00:45:48.531Z,11.11
2019-05-22T00:48:16.051Z,11.09
2019-05-22T00:50:52.842Z,11.07
2019-05-22T00:53:36.025Z,11.07
2019-05-22T00:56:14.068Z,11.07
2019-05-22T00:58:50.969Z,11.09
2019-05-22T01:01:27.265Z,11.07
2019-05-22T01:03:56.405Z,11.06
2019-05-22T01:06:26.167Z,11.05
2019-05-22T01:08:55.356Z,11.05
2019-05-22T01:11:24.401Z,11.05
2019-05-22T01:13:51.420Z,11.07
2019-05-22T01:16:18.616Z,11.06
2019-05-22T01:18:46.147Z,11.04
2019-05-22T01:21:18.845Z,11.06
2019-05-22T01:23:47.874Z,11.07
2019-05-22T01:26:18.403Z,11.04
2019-05-22T01:28:46.466Z,11.04
2019-05-22T01:31:23.413Z,11.04
2019-05-22T01:33:58.980Z,11.04
2019-05-22T01:36:41.991Z,11.03
2019-05-22T01:39:34.868Z,11.02
2019-05-22T01:42:04.216Z,11.03
2019-05-22T01:44:31.280Z,11.03
2019-05-22T01:47:03.998Z,11.03
2019-05-22T01:49:31.088Z,11.03
2019-05-22T01:51:59.166Z,11.03
2019-05-22T01:54:27.040Z,11.02
2019-05-22T01:57:03.703Z,11.02
2019-05-22T01:59:33.169Z,11.02
2019-05-22T02:02:00.489Z,11.01
2019-05-22T02:04:27.580Z,11.01
2019-05-22T02:06:56.481Z,11.02
2019-05-22T02:09:30.195Z,11.01
2019-05-22T02:12:06.666Z,11.00
2019-05-22T02:14:34.279Z,11.01
2019-05-22T02:17:04.556Z,11.00
2019-05-22T02:19:32.240Z,10.98
2019-05-22T02:22:01.216Z,10.98
2019-05-22T02:24:30.316Z,11.01
2019-05-22T02:26:58.506Z,11.01
2019-05-22T02:29:25.588Z,11.01
2019-05-22T02:31:55.746Z,11.00
2019-05-22T02:34:22.967Z,10.99
2019-05-22T02:36:51.263Z,10.99
2019-05-22T02:39:28.671Z,11.00
2019-05-22T02:42:01.795Z,11.00
2019-05-22T02:44:30.610Z,11.00
2019-05-22T02:47:17.169Z,10.99
2019-05-22T02:49:28.349Z,10.98
2019-05-22T02:51:56.515Z,10.97
2019-05-22T02:54:25.127Z,10.95
2019-05-22T02:56:52.703Z,10.98
2019-05-22T02:59:20.277Z,10.97
2019-05-22T03:01:47.555Z,10.96
2019-05-22T03:04:16.681Z,10.97
2019-05-22T03:06:43.760Z,10.96
2019-05-22T03:09:17.781Z,10.97
2019-05-22T03:11:53.315Z,10.97
2019-05-22T03:14:21.396Z,10.97
2019-05-22T03:16:50.941Z,10.97
2019-05-22T03:19:25.603Z,10.97
2019-05-22T03:21:53.065Z,10.98
2019-05-22T03:24:20.352Z,10.97
2019-05-22T03:26:48.104Z,10.96
2019-05-22T03:29:15.984Z,10.96
2019-05-22T03:31:43.185Z,10.95
2019-05-22T03:34:11.532Z,10.96
2019-05-22T03:36:38.840Z,10.97
2019-05-22T03:39:07.256Z,10.98
2019-05-22T03:41:35.022Z,10.98
2019-05-22T03:44:03.134Z,10.98
2019-05-22T03:46:33.831Z,10.97
2019-05-22T03:49:01.303Z,10.98
2019-05-22T03:51:29.386Z,10.99
2019-05-22T03:53:56.628Z,10.97
2019-05-22T03:56:24.129Z,10.97
2019-05-22T03:58:51.194Z,10.97
2019-05-22T04:01:21.051Z,10.98
2019-05-22T04:03:48.218Z,10.98
2019-05-22T04:06:16.804Z,11.00
2019-05-22T04:08:44.664Z,10.99
2019-05-22T04:11:12.462Z,10.98
2019-05-22T04:13:39.753Z,10.98
2019-05-22T04:16:09.899Z,11.01
2019-05-22T04:18:38.454Z,11.11
2019-05-22T04:21:05.728Z,11.10
2019-05-22T04:23:32.900Z,11.13
2019-05-22T04:26:03.131Z,11.15
2019-05-22T04:28:30.507Z,11.15
2019-05-22T04:30:59.872Z,11.17
2019-05-22T04:33:28.958Z,11.19
2019-05-22T04:35:56.038Z,11.22
2019-05-22T04:38:23.536Z,11.22
2019-05-22T04:40:59.158Z,11.21
2019-05-22T04:43:30.093Z,11.20
2019-05-22T04:45:57.465Z,11.20
2019-05-22T04:48:26.355Z,11.17
2019-05-22T04:50:53.940Z,11.22
2019-05-22T04:53:21.170Z,11.21
2019-05-22T04:55:48.310Z,11.22
2019-05-22T04:58:19.002Z,11.21
2019-05-22T05:00:46.700Z,11.19
2019-05-22T05:03:15.058Z,11.18
2019-05-22T05:05:45.140Z,11.21
2019-05-22T05:08:14.552Z,11.21
2019-05-22T05:10:42.716Z,11.21
2019-05-22T05:13:09.895Z,11.20
2019-05-22T05:15:37.374Z,11.25
2019-05-22T05:18:04.546Z,11.23
2019-05-22T05:20:31.695Z,11.21
2019-05-22T05:22:58.793Z,11.18
2019-05-22T05:25:25.984Z,11.27
2019-05-22T05:27:53.219Z,11.31
2019-05-22T05:30:21.063Z,11.39
2019-05-22T05:32:48.275Z,11.34
2019-05-22T05:35:16.942Z,11.37
2019-05-22T05:37:44.019Z,11.33
2019-05-22T05:40:35.073Z,11.31
2019-05-22T05:43:03.102Z,11.23
2019-05-22T05:45:31.915Z,11.20
2019-05-22T05:47:59.767Z,11.17
2019-05-22T05:50:39.073Z,11.18
2019-05-22T05:52:57.449Z,11.20
2019-05-22T05:55:26.679Z,11.19
2019-05-22T05:58:22.531Z,11.19
2019-05-22T06:00:54.117Z,11.24
2019-05-22T06:03:41.724Z,11.23
2019-05-22T06:07:00.298Z,11.23
2019-05-22T06:09:26.898Z,11.25
2019-05-22T06:11:56.293Z,11.25
2019-05-22T06:14:28.260Z,11.27
2019-05-22T06:17:40.052Z,11.27
2019-05-22T06:20:09.102Z,11.27
2019-05-22T06:22:36.950Z,11.23
2019-05-22T06:25:05.563Z,11.24
2019-05-22T06:27:35.048Z,11.25
2019-05-22T06:30:04.120Z,11.26
2019-05-22T06:33:07.883Z,11.27
2019-05-22T06:35:36.933Z,11.28
2019-05-22T06:38:53.621Z,11.29
2019-05-22T06:41:23.823Z,11.30
2019-05-22T06:44:39.205Z,11.30
2019-05-22T06:47:15.192Z,11.30
2019-05-22T06:49:51.486Z,11.31
2019-05-22T06:52:18.576Z,11.33
2019-05-22T06:54:45.886Z,11.32
2019-05-22T06:57:19.627Z,11.31
2019-05-22T06:59:49.169Z,11.33
2019-05-22T07:02:18.668Z,11.32
2019-05-22T07:04:46.274Z,11.35
2019-05-22T07:07:14.870Z,11.34
2019-05-22T07:09:44.128Z,11.39
2019-05-22T07:12:13.595Z,11.36
2019-05-22T07:15:19.926Z,11.34
2019-05-22T07:17:48.735Z,11.35
2019-05-22T07:20:17.545Z,11.34
2019-05-22T07:22:45.521Z,11.36
2019-05-22T07:25:14.837Z,11.32
2019-05-22T07:27:42.002Z,11.33
2019-05-22T07:30:09.438Z,11.32
2019-05-22T07:32:37.318Z,11.32
2019-05-22T07:35:04.746Z,11.36
2019-05-22T07:37:32.808Z,11.36
2019-05-22T07:39:59.913Z,11.45
2019-05-22T07:42:27.028Z,11.45
2019-05-22T07:44:54.132Z,11.44
2019-05-22T07:47:22.351Z,11.39
2019-05-22T07:49:49.419Z,11.44
2019-05-22T07:52:16.468Z,11.44
2019-05-22T07:54:44.185Z,11.48
2019-05-22T07:57:13.668Z,11.50
2019-05-22T07:59:40.764Z,11.51
2019-05-22T08:02:08.946Z,11.51
2019-05-22T08:04:37.112Z,11.51
2019-05-22T08:07:06.381Z,11.51
2019-05-22T08:09:33.966Z,11.58
2019-05-22T08:12:01.015Z,11.56
2019-05-22T08:14:28.085Z,11.58
2019-05-22T08:16:55.152Z,11.61
2019-05-22T08:19:22.632Z,11.68
2019-05-22T08:21:49.712Z,11.71
2019-05-22T08:24:17.295Z,11.77
2019-05-22T08:26:54.516Z,11.78
2019-05-22T08:29:15.383Z,11.83
2019-05-22T08:31:42.597Z,11.85
2019-05-22T08:34:10.087Z,11.86
2019-05-22T08:36:38.779Z,11.92
2019-05-22T08:39:06.433Z,11.99
2019-05-22T08:41:36.803Z,12.04
2019-05-22T08:44:16.167Z,12.04
2019-05-22T08:46:36.758Z,12.14
2019-05-22T08:49:04.253Z,12.14
2019-05-22T08:51:31.451Z,12.19
2019-05-22T08:53:58.539Z,12.19
2019-05-22T08:56:26.229Z,12.25
2019-05-22T08:58:54.455Z,12.43
2019-05-22T09:01:23.274Z,12.56
2019-05-22T09:03:50.517Z,12.56
2019-05-22T09:06:17.663Z,12.63
2019-05-22T09:08:44.907Z,12.91
2019-05-22T09:11:12.007Z,13.13
2019-05-22T09:13:39.234Z,13.34
2019-05-22T09:16:07.516Z,13.41
2019-05-22T09:18:34.638Z,13.39
2019-05-22T09:21:02.360Z,13.44
2019-05-22T09:23:29.469Z,13.35
2019-05-22T09:25:57.473Z,13.29
2019-05-22T09:28:24.878Z,13.27
2019-05-22T09:30:52.276Z,13.13
2019-05-22T09:33:19.716Z,13.10
2019-05-22T09:35:47.075Z,13.09
2019-05-22T09:38:14.136Z,13.02
2019-05-22T09:40:41.277Z,13.00
2019-05-22T09:43:08.563Z,12.95
2019-05-22T09:45:36.322Z,12.91
2019-05-22T09:48:04.239Z,12.89
2019-05-22T09:50:31.367Z,12.94
2019-05-22T09:52:58.730Z,12.89
2019-05-22T09:55:25.875Z,12.78
2019-05-22T09:57:52.972Z,12.72
2019-05-22T10:00:21.529Z,12.78
2019-05-22T10:02:49.046Z,12.88
2019-05-22T10:05:16.139Z,12.89
2019-05-22T10:07:57.724Z,12.91
2019-05-22T10:10:14.463Z,12.94
2019-05-22T10:12:41.747Z,12.93
2019-05-22T10:15:09.368Z,13.05
2019-05-22T10:17:37.534Z,13.05
2019-05-22T10:20:06.332Z,13.02
2019-05-22T10:22:33.719Z,13.03
2019-05-22T10:25:14.787Z,13.03
2019-05-22T10:27:30.134Z,13.09
2019-05-22T10:29:57.802Z,13.11
2019-05-22T10:32:31.547Z,13.14
2019-05-22T10:34:57.839Z,13.11
2019-05-22T10:37:25.128Z,13.14
2019-05-22T10:39:52.214Z,13.13
2019-05-22T10:42:19.307Z,13.16
2019-05-22T10:44:47.635Z,13.14
2019-05-22T10:47:18.482Z,13.04
2019-05-22T10:49:44.229Z,13.03
2019-05-22T10:52:11.833Z,12.98
2019-05-22T10:54:38.929Z,12.99
2019-05-22T10:57:07.137Z,13.08
2019-05-22T10:59:34.205Z,13.08
2019-05-22T11:02:01.396Z,13.14
2019-05-22T11:04:28.878Z,13.10
2019-05-22T11:06:56.277Z,13.08
2019-05-22T11:09:23.557Z,13.00
2019-05-22T11:11:50.979Z,12.91
2019-05-22T11:14:18.666Z,12.93
2019-05-22T11:16:45.983Z,12.99
2019-05-22T11:19:13.574Z,13.10
2019-05-22T11:21:40.960Z,13.32
2019-05-22T11:24:08.259Z,13.49
2019-05-22T11:26:35.373Z,13.79
2019-05-22T11:29:02.890Z,13.96
2019-05-22T11:31:30.582Z,14.10
2019-05-22T11:33:57.649Z,14.11
2019-05-22T11:36:25.125Z,14.10
2019-05-22T11:38:52.225Z,14.17
2019-05-22T11:41:19.413Z,14.17
2019-05-22T11:43:46.479Z,14.11
2019-05-22T11:46:13.729Z,14.10
2019-05-22T11:48:40.958Z,14.01
2019-05-22T11:51:08.184Z,13.91
2019-05-22T11:53:35.380Z,13.86
2019-05-22T11:56:02.439Z,13.92
2019-05-22T11:58:29.653Z,13.83
2019-05-22T12:00:56.820Z,13.74
2019-05-22T12:03:24.444Z,13.63
2019-05-22T12:05:52.921Z,13.72
2019-05-22T12:08:20.538Z,13.81
2019-05-22T12:10:48.135Z,13.78
2019-05-22T12:13:15.645Z,13.89
2019-05-22T12:15:42.721Z,14.02
2019-05-22T12:18:10.274Z,14.06
2019-05-22T12:20:37.537Z,14.06
2019-05-22T12:23:04.754Z,14.09
2019-05-22T12:25:31.923Z,13.99
2019-05-22T12:27:59.040Z,14.14
2019-05-22T12:30:26.230Z,14.23
2019-05-22T12:32:54.535Z,14.16
2019-05-22T12:35:21.637Z,14.01
2019-05-22T12:37:48.840Z,14.09
2019-05-22T12:40:18.458Z,14.30
2019-05-22T12:42:45.577Z,14.49
2019-05-22T12:45:13.059Z,14.60
2019-05-22T12:47:40.987Z,14.65
2019-05-22T12:50:08.356Z,14.58
2019-05-22T12:52:36.462Z,14.50
2019-05-22T12:55:05.175Z,14.57
2019-05-22T12:57:32.948Z,14.68
2019-05-22T13:00:02.568Z,14.77
2019-05-22T13:02:29.902Z,14.68
2019-05-22T13:04:58.411Z,14.78
2019-05-22T13:07:26.844Z,14.88
2019-05-22T13:09:53.914Z,15.01
2019-05-22T13:12:21.160Z,15.10
2019-05-22T13:14:49.048Z,15.19
2019-05-22T13:17:16.529Z,15.19
2019-05-22T13:19:46.031Z,14.92
2019-05-22T13:22:15.712Z,14.82
2019-05-22T13:24:43.011Z,14.79
2019-05-22T13:27:12.862Z,14.69
2019-05-22T13:29:40.337Z,14.57
2019-05-22T13:32:09.723Z,14.49
2019-05-22T13:34:38.346Z,14.43
2019-05-22T13:37:07.625Z,14.49
2019-05-22T13:39:34.706Z,14.61
2019-05-22T13:42:01.771Z,14.76
2019-05-22T13:44:29.077Z,14.86
2019-05-22T13:46:56.446Z,14.67
2019-05-22T13:49:23.835Z,14.56
2019-05-22T13:51:51.133Z,14.55
2019-05-22T13:54:18.539Z,14.49
2019-05-22T13:56:45.813Z,14.41
2019-05-22T13:59:13.445Z,14.45
2019-05-22T14:01:40.557Z,14.59
2019-05-22T14:04:07.650Z,14.61
2019-05-22T14:06:35.234Z,14.61
2019-05-22T14:09:02.364Z,14.60
2019-05-22T14:11:29.737Z,14.59
2019-05-22T14:13:57.436Z,14.59
2019-05-22T14:16:24.936Z,14.44
2019-05-22T14:18:52.079Z,14.40
2019-05-22T14:21:19.917Z,14.30
2019-05-22T14:23:46.982Z,14.30
2019-05-22T14:26:14.895Z,14.31
2019-05-22T14:28:42.510Z,14.30
2019-05-22T14:31:09.792Z,14.26
2019-05-22T14:33:40.414Z,14.16
2019-05-22T14:36:06.062Z,14.13
2019-05-22T14:38:33.298Z,14.20
2019-05-22T14:41:01.229Z,14.19
2019-05-22T14:43:28.454Z,14.20
2019-05-22T14:45:55.770Z,14.12
2019-05-22T14:48:22.881Z,14.02
2019-05-22T14:50:50.041Z,14.00
2019-05-22T14:53:17.233Z,13.98
2019-05-22T14:55:44.460Z,14.06
2019-05-22T14:58:12.250Z,14.10
2019-05-22T15:00:39.674Z,14.12
2019-05-22T15:03:06.920Z,14.07
2019-05-22T15:05:34.247Z,14.19
2019-05-22T15:08:01.379Z,14.21
2019-05-22T15:10:29.648Z,14.21
2019-05-22T15:12:56.921Z,14.39
2019-05-22T15:15:24.589Z,14.43
2019-05-22T15:17:51.669Z,14.45
2019-05-22T15:20:23.647Z,14.50
2019-05-22T15:22:50.763Z,14.57
2019-05-22T15:25:18.303Z,14.80
2019-05-22T15:27:45.626Z,15.03
2019-05-22T15:30:12.920Z,15.21
2019-05-22T15:32:39.983Z,15.22
2019-05-22T15:35:09.135Z,15.11
2019-05-22T15:37:36.954Z,14.94
2019-05-22T15:40:05.083Z,14.78
2019-05-22T15:42:35.773Z,14.72
2019-05-22T15:45:04.703Z,14.64
2019-05-22T15:47:50.339Z,14.60
2019-05-22T15:50:02.421Z,14.61
2019-05-22T15:52:30.768Z,14.55
2019-05-22T15:54:59.001Z,14.52
2019-05-22T15:57:26.626Z,14.42
2019-05-22T15:59:53.901Z,14.31
2019-05-22T16:02:22.841Z,14.26
2019-05-22T16:04:50.031Z,14.26
2019-05-22T16:07:18.070Z,14.28
2019-05-22T16:09:45.667Z,14.25
2019-05-22T16:12:12.883Z,14.28
2019-05-22T16:14:40.728Z,14.30
2019-05-22T16:17:07.860Z,14.35
2019-05-22T16:19:35.529Z,14.40
2019-05-22T16:22:04.509Z,14.43
2019-05-22T16:24:32.302Z,14.32
2019-05-22T16:27:00.001Z,14.26
2019-05-22T16:29:27.162Z,14.20
2019-05-22T16:31:55.393Z,14.10
2019-05-22T16:34:22.499Z,14.01
2019-05-22T16:36:49.595Z,13.96
2019-05-22T16:39:17.660Z,13.92
2019-05-22T16:41:46.184Z,13.88
2019-05-22T16:44:13.332Z,13.93
2019-05-22T16:46:42.194Z,13.98
2019-05-22T16:49:10.220Z,13.98
2019-05-22T16:51:37.488Z,14.02
2019-05-22T16:54:06.467Z,14.03
2019-05-22T16:56:34.557Z,14.02
2019-05-22T16:59:02.083Z,14.06
2019-05-22T17:01:29.640Z,14.06
2019-05-22T17:03:59.990Z,14.14
2019-05-22T17:06:27.558Z,14.16
2019-05-22T17:08:55.445Z,14.23
2019-05-22T17:11:23.358Z,14.28
2019-05-22T17:13:50.654Z,14.37
2019-05-22T17:16:18.317Z,14.46
2019-05-22T17:18:48.125Z,14.49
2019-05-22T17:21:14.414Z,14.40
2019-05-22T17:23:42.718Z,14.33
2019-05-22T17:26:10.387Z,14.17
2019-05-22T17:28:37.501Z,14.04
2019-05-22T17:31:05.494Z,13.97
2019-05-22T17:33:32.966Z,13.91
2019-05-22T17:36:00.561Z,13.83
2019-05-22T17:38:28.545Z,13.80
2019-05-22T17:40:55.746Z,13.75
2019-05-22T17:43:23.966Z,13.71
2019-05-22T17:45:51.562Z,13.65
2019-05-22T17:48:19.149Z,13.58
2019-05-22T17:50:46.485Z,13.51
2019-05-22T17:53:14.514Z,13.47
2019-05-22T17:55:41.748Z,13.44
2019-05-22T17:58:09.378Z,13.44
2019-05-22T18:00:41.925Z,13.44
2019-05-22T18:03:09.229Z,13.45
2019-05-22T18:05:36.613Z,13.43
2019-05-22T18:08:03.843Z,13.44
2019-05-22T18:10:31.425Z,13.43
2019-05-22T18:12:58.514Z,13.38
2019-05-22T18:15:25.986Z,13.36
2019-05-22T18:17:53.396Z,13.34
2019-05-22T18:20:21.134Z,13.30
2019-05-22T18:22:48.271Z,13.26
2019-05-22T18:25:16.853Z,13.21
2019-05-22T18:27:44.173Z,13.15
2019-05-22T18:30:11.687Z,13.07
2019-05-22T18:32:41.056Z,13.01
2019-05-22T18:35:09.092Z,12.97
2019-05-22T18:37:36.209Z,12.93
2019-05-22T18:40:04.153Z,12.92
2019-05-22T18:42:31.328Z,12.92
2019-05-22T18:44:58.435Z,12.96
2019-05-22T18:47:25.775Z,12.96
2019-05-22T18:49:52.983Z,12.94
2019-05-22T18:52:20.203Z,12.89
2019-05-22T18:54:47.488Z,12.81
2019-05-22T18:57:15.796Z,12.74
2019-05-22T18:59:43.080Z,12.70
2019-05-22T19:02:10.220Z,12.65
2019-05-22T19:04:37.303Z,12.59
2019-05-22T19:07:04.526Z,12.53
2019-05-22T19:09:31.780Z,12.43
2019-05-22T19:11:58.906Z,12.41
2019-05-22T19:14:25.997Z,12.29
2019-05-22T19:16:53.095Z,12.29
2019-05-22T19:19:20.258Z,12.19
2019-05-22T19:21:47.585Z,12.14
2019-05-22T19:24:14.685Z,12.14
2019-05-22T19:26:41.903Z,12.09
2019-05-22T19:29:09.102Z,11.92
2019-05-22T19:31:36.282Z,11.92
2019-05-22T19:34:03.558Z,11.87
2019-05-22T19:36:30.709Z,11.87
2019-05-22T19:38:57.882Z,11.76
2019-05-22T19:41:24.987Z,11.66
2019-05-22T19:43:52.052Z,11.63
2019-05-22T19:46:19.259Z,11.60
2019-05-22T19:48:46.341Z,11.60
2019-05-22T19:51:16.352Z,11.48
2019-05-22T19:53:44.077Z,11.44
2019-05-22T19:56:11.262Z,11.44
2019-05-22T19:58:38.481Z,11.31
2019-05-22T20:01:05.818Z,11.29
2019-05-22T20:03:33.727Z,11.32
2019-05-22T20:06:01.518Z,11.32
2019-05-22T20:08:28.675Z,11.19
2019-05-22T20:10:55.818Z,11.26
2019-05-22T20:13:24.065Z,11.25
2019-05-22T20:15:51.493Z,11.14
2019-05-22T20:18:19.324Z,11.14
2019-05-22T20:20:46.725Z,11.24
2019-05-22T20:23:15.070Z,11.17
2019-05-22T20:25:42.243Z,11.21
2019-05-22T20:28:09.470Z,11.19
2019-05-22T20:30:37.160Z,11.18
2019-05-22T20:33:04.675Z,11.19
2019-05-22T20:35:32.473Z,11.16
2019-05-22T20:38:00.581Z,11.16
2019-05-22T20:40:28.091Z,11.22
2019-05-22T20:42:55.167Z,11.22
2019-05-22T20:45:24.831Z,11.19
2019-05-22T20:48:11.412Z,11.18
2019-05-22T20:50:38.632Z,11.17
2019-05-22T20:53:07.567Z,11.16
2019-05-22T20:55:35.159Z,11.16
2019-05-22T20:58:05.273Z,11.16
2019-05-22T21:00:33.435Z,11.16
2019-05-22T21:03:02.090Z,11.12
2019-05-22T21:05:29.690Z,11.12
2019-05-22T21:08:01.542Z,11.08
2019-05-22T21:10:29.453Z,11.06
2019-05-22T21:12:56.818Z,11.02
2019-05-22T21:15:24.425Z,10.96
2019-05-22T21:17:51.864Z,10.96
2019-05-22T21:20:20.390Z,10.91
2019-05-22T21:22:48.204Z,10.84
2019-05-22T21:25:16.406Z,10.81
2019-05-22T21:27:43.576Z,10.74
2019-05-22T21:30:12.082Z,10.68
2019-05-22T21:32:39.556Z,10.57
2019-05-22T21:35:07.437Z,10.52
2019-05-22T21:37:34.538Z,10.52
2019-05-22T21:40:03.031Z,10.40
2019-05-22T21:42:30.917Z,10.40
2019-05-22T21:44:58.322Z,10.36
2019-05-22T21:47:25.619Z,10.31
2019-05-22T21:49:52.813Z,10.27
2019-05-22T21:52:20.585Z,10.24
2019-05-22T21:54:47.713Z,10.21
2019-05-22T21:57:16.380Z,10.20
2019-05-22T21:59:43.476Z,10.19
2019-05-22T22:02:18.033Z,10.16
2019-05-22T22:04:45.078Z,10.13
2019-05-22T22:07:12.481Z,10.07
2019-05-22T22:09:39.779Z,10.04
2019-05-22T22:12:09.235Z,10.04
2019-05-22T22:14:37.497Z,10.03
2019-05-22T22:17:04.943Z,10.08
2019-05-22T22:19:32.046Z,10.13
2019-05-22T22:21:59.390Z,10.12
2019-05-22T22:24:27.227Z,10.08
2019-05-22T22:26:56.072Z,10.04
2019-05-22T22:29:23.458Z,10.02
2019-05-22T22:31:51.225Z,9.98
2019-05-22T22:34:31.536Z,9.98
2019-05-22T22:36:59.520Z,9.95
2019-05-22T22:39:27.257Z,9.97
2019-05-22T22:41:57.246Z,9.98
2019-05-22T22:44:25.124Z,10.01
2019-05-22T22:46:58.252Z,10.04
2019-05-22T22:49:27.150Z,10.06
2019-05-22T22:51:54.917Z,10.04
2019-05-22T22:54:22.650Z,10.06
2019-05-22T22:56:49.765Z,10.10
2019-05-22T22:59:17.145Z,10.13
2019-05-22T23:01:47.256Z,10.16
2019-05-22T23:04:14.522Z,10.23
2019-05-22T23:06:42.203Z,10.25
2019-05-22T23:09:11.646Z,10.29
2019-05-22T23:11:41.126Z,10.31
2019-05-22T23:14:08.234Z,10.34
2019-05-22T23:16:35.546Z,10.38
2019-05-22T23:19:42.414Z,10.43
2019-05-22T23:22:15.335Z,10.47
2019-05-22T23:24:45.499Z,10.53
2019-05-22T23:27:13.079Z,10.54
2019-05-22T23:29:41.607Z,10.57
2019-05-22T23:32:10.907Z,10.58
2019-05-22T23:34:38.084Z,10.57
2019-05-22T23:37:07.120Z,10.57
2019-05-22T23:39:35.588Z,10.57
2019-05-22T23:42:09.456Z,10.56
2019-05-22T23:44:37.586Z,10.56
2019-05-22T23:47:06.909Z,10.55
2019-05-22T23:49:35.155Z,10.54
2019-05-22T23:52:02.651Z,10.51
2019-05-22T23:54:29.912Z,10.47
2019-05-22T23:56:58.135Z,10.44
2019-05-22T23:59:27.278Z,10.40
